Lagoa Santa, Brazil
Current Conditions -  °F | °C
As of 7:00 AM on Friday 31 Oct 2014 (Local Time) from SBLS Reporting Station
Few Clouds Few Clouds  
Wind Chill: 68°   Ceiling: Unl
Heat Index: 68°   Visibility: 6mi
Dew Point: 63°   Wind: 6mph
Humidity: 83%   Direction: 140°SE
Pressure: 30.09"   Gusts: NA
Location:  19.65°S, 43.9°W
Report Text: SBLS 310900Z 14005KT 9999 FEW020 20/17 Q1019
Loading
Personal Weather Stations






























Interactive Weather Map
Tropical Storm Tracking
New forecast layout! Learn more

10-Day Weather Forecast

Advertisements
Track Severe Weather on mobile